createdAt,value
2022-08-21T00:00:44.188Z,9.745608
2022-08-21T00:01:43.120Z,9.745467
2022-08-21T00:02:43.115Z,9.745525
2022-08-21T00:03:42.101Z,9.745548
2022-08-21T00:04:56.914Z,9.745475
2022-08-21T00:05:43.088Z,9.745475
2022-08-21T00:06:42.098Z,9.745462
2022-08-21T00:07:42.082Z,9.745492
2022-08-21T00:08:42.074Z,9.745667
2022-08-21T00:09:42.059Z,9.745554
2022-08-21T00:10:42.081Z,9.745554
2022-08-21T00:11:42.048Z,9.745528
2022-08-21T00:12:42.043Z,9.745510
2022-08-21T00:13:42.033Z,9.745391
2022-08-21T00:14:42.024Z,9.745650
2022-08-21T00:15:42.038Z,9.745755
2022-08-21T00:16:42.005Z,9.745565
2022-08-21T00:17:42.003Z,9.745387
2022-08-21T00:18:41.993Z,9.745754
2022-08-21T00:19:41.980Z,9.745698
2022-08-21T00:20:42.004Z,9.745548
2022-08-21T00:21:44.454Z,9.745389
2022-08-21T00:22:41.962Z,9.745449
2022-08-21T00:23:41.954Z,9.745548
2022-08-21T00:24:41.940Z,9.745511
2022-08-21T00:25:41.963Z,9.745510
2022-08-21T00:26:41.931Z,9.745397
2022-08-21T00:27:41.926Z,9.745440
2022-08-21T00:28:41.910Z,9.745388
2022-08-21T00:29:41.903Z,9.745503
2022-08-21T00:30:41.922Z,9.745566
2022-08-21T00:31:41.886Z,9.745459
2022-08-21T00:32:41.878Z,9.745480
2022-08-21T00:33:41.868Z,9.745550
2022-08-21T00:34:41.870Z,9.745404
2022-08-21T00:35:41.888Z,9.745567
2022-08-21T00:36:41.842Z,9.745386
2022-08-21T00:37:41.840Z,9.745589
2022-08-21T00:38:41.831Z,9.745647
2022-08-21T00:39:41.915Z,9.745648
2022-08-21T00:40:41.810Z,9.745529
2022-08-21T00:41:41.809Z,9.745627
2022-08-21T00:42:41.802Z,9.745687
2022-08-21T00:43:41.797Z,9.745701
2022-08-21T00:44:41.810Z,9.745710
2022-08-21T00:45:41.777Z,9.745608
2022-08-21T00:46:41.773Z,9.745557
2022-08-21T00:47:41.763Z,9.745556
2022-08-21T00:48:41.759Z,9.745534
2022-08-21T00:49:41.766Z,9.745457
2022-08-21T00:50:41.741Z,9.745502
2022-08-21T00:51:41.734Z,9.745512
2022-08-21T00:52:41.733Z,9.745797
2022-08-21T00:53:41.717Z,9.745886
2022-08-21T00:54:43.182Z,9.745787
2022-08-21T00:55:41.699Z,9.745614
2022-08-21T00:56:41.695Z,9.745549
2022-08-21T00:57:41.682Z,9.745438
2022-08-21T00:58:41.678Z,9.745511
2022-08-21T00:59:41.689Z,9.745486
2022-08-21T01:00:41.696Z,9.745860
2022-08-21T01:01:41.651Z,9.745943
2022-08-21T01:02:41.646Z,9.745666
2022-08-21T01:03:44.118Z,9.745665
2022-08-21T01:04:41.665Z,9.745608
2022-08-21T01:05:41.622Z,9.745671
2022-08-21T01:06:41.618Z,9.745878
2022-08-21T01:07:41.607Z,9.745689
2022-08-21T01:08:46.688Z,9.745486
2022-08-21T01:09:42.608Z,9.745687
2022-08-21T01:10:41.584Z,9.745502
2022-08-21T01:11:41.573Z,9.745615
2022-08-21T01:12:41.565Z,9.745717
2022-08-21T01:13:41.562Z,9.745599
2022-08-21T01:14:41.575Z,9.745562
2022-08-21T01:15:41.548Z,9.745592
2022-08-21T01:16:41.540Z,9.745653
2022-08-21T01:17:41.524Z,9.745628
2022-08-21T01:18:41.513Z,9.745410
2022-08-21T01:19:41.539Z,9.745504
2022-08-21T01:20:41.509Z,9.745551
2022-08-21T01:21:41.494Z,9.745358
2022-08-21T01:22:41.485Z,9.745463
2022-08-21T01:23:41.480Z,9.745301
2022-08-21T01:24:41.504Z,9.745296
2022-08-21T01:25:41.458Z,9.745111
2022-08-21T01:26:41.466Z,9.745256
2022-08-21T01:27:41.446Z,9.745250
2022-08-21T01:28:41.448Z,9.745538
2022-08-21T01:29:41.428Z,9.745713
2022-08-21T01:30:41.447Z,9.745346
2022-08-21T01:31:41.416Z,9.745364
2022-08-21T01:32:41.404Z,9.745540
2022-08-21T01:33:41.398Z,9.745563
2022-08-21T01:34:41.389Z,9.745440
2022-08-21T01:35:41.408Z,9.745480
2022-08-21T01:36:41.378Z,9.745606
2022-08-21T01:37:41.362Z,9.745543
2022-08-21T01:38:41.360Z,9.745467
2022-08-21T01:39:41.386Z,9.745318
2022-08-21T01:40:41.366Z,9.745259
2022-08-21T01:41:41.330Z,9.745943
2022-08-21T01:42:41.321Z,9.745599
2022-08-21T01:43:41.319Z,9.745386
2022-08-21T01:44:41.308Z,9.745215
2022-08-21T01:45:41.328Z,9.745371
2022-08-21T01:46:41.295Z,9.745398
2022-08-21T01:47:41.288Z,9.745579
2022-08-21T01:48:41.273Z,9.745668
2022-08-21T01:49:41.265Z,9.745421
2022-08-21T01:50:41.284Z,9.745291
2022-08-21T01:51:41.253Z,9.745581
2022-08-21T01:52:41.237Z,9.745696
2022-08-21T01:53:41.242Z,9.745456
2022-08-21T01:54:41.227Z,9.745446
2022-08-21T01:55:41.242Z,9.745524
2022-08-21T01:56:41.216Z,9.745667
2022-08-21T01:57:41.202Z,9.745418
2022-08-21T01:58:41.188Z,9.745421
2022-08-21T01:59:42.187Z,9.745189
2022-08-21T02:00:41.381Z,9.745355
2022-08-21T02:01:41.177Z,9.745139
2022-08-21T02:02:41.163Z,9.745191
2022-08-21T02:03:41.155Z,9.745234
2022-08-21T02:04:41.146Z,9.745276
2022-08-21T02:05:41.161Z,9.745172
2022-08-21T02:06:41.129Z,9.745251
2022-08-21T02:07:41.119Z,9.745474
2022-08-21T02:08:41.128Z,9.745425
2022-08-21T02:09:41.112Z,9.745375
2022-08-21T02:10:41.124Z,9.745372
2022-08-21T02:11:42.093Z,9.745475
2022-08-21T02:12:41.088Z,9.745256
2022-08-21T02:13:41.072Z,9.745371
2022-08-21T02:14:41.074Z,9.745562
2022-08-21T02:15:41.089Z,9.745646
2022-08-21T02:16:41.056Z,9.745428
2022-08-21T02:17:41.051Z,9.745426
2022-08-21T02:18:41.038Z,9.745253
2022-08-21T02:19:41.086Z,9.745340
2022-08-21T02:20:41.045Z,9.745496
2022-08-21T02:21:41.013Z,9.745409
2022-08-21T02:22:41.000Z,9.745177
2022-08-21T02:23:40.994Z,9.745182
2022-08-21T02:24:50.563Z,9.745334
2022-08-21T02:25:42.013Z,9.745459
2022-08-21T02:26:40.976Z,9.745308
2022-08-21T02:27:40.967Z,9.745256
2022-08-21T02:28:40.959Z,9.745212
2022-08-21T02:29:40.948Z,9.745283
2022-08-21T02:30:40.975Z,9.745375
2022-08-21T02:31:40.932Z,9.745403
2022-08-21T02:32:40.925Z,9.745644
2022-08-21T02:33:40.917Z,9.745590
2022-08-21T02:34:40.912Z,9.745482
2022-08-21T02:35:40.925Z,9.745543
2022-08-21T02:36:40.892Z,9.745452
2022-08-21T02:37:40.881Z,9.745431
2022-08-21T02:38:40.873Z,9.745260
2022-08-21T02:39:40.901Z,9.745338
2022-08-21T02:40:43.903Z,9.745096
2022-08-21T02:41:42.849Z,9.745293
2022-08-21T02:42:40.843Z,9.745467
2022-08-21T02:43:40.838Z,9.745570
2022-08-21T02:44:40.829Z,9.745584
2022-08-21T02:45:40.868Z,9.745395
2022-08-21T02:46:40.814Z,9.745186
2022-08-21T02:47:40.803Z,9.745279
2022-08-21T02:48:40.799Z,9.745375
2022-08-21T02:49:40.793Z,9.745548
2022-08-21T02:50:40.832Z,9.745543
2022-08-21T02:51:40.777Z,9.745528
2022-08-21T02:52:40.764Z,9.745523
2022-08-21T02:53:40.764Z,9.745509
2022-08-21T02:54:40.750Z,9.745613
2022-08-21T02:55:40.774Z,9.745593
2022-08-21T02:56:40.737Z,9.745576
2022-08-21T02:57:40.729Z,9.745567
2022-08-21T02:58:40.716Z,9.745521
2022-08-21T02:59:41.746Z,9.745508
2022-08-21T03:00:40.706Z,9.745481
2022-08-21T03:01:40.778Z,9.745534
2022-08-21T03:02:40.694Z,9.745503
2022-08-21T03:03:40.686Z,9.745345
2022-08-21T03:04:46.023Z,9.745255
2022-08-21T03:05:42.667Z,9.745399
2022-08-21T03:06:40.694Z,9.745296
2022-08-21T03:07:40.659Z,9.745282
2022-08-21T03:08:40.646Z,9.745446
2022-08-21T03:09:45.558Z,9.745427
2022-08-21T03:10:41.635Z,9.745380
2022-08-21T03:11:40.646Z,9.745360
2022-08-21T03:12:40.610Z,9.745432
2022-08-21T03:13:40.604Z,9.745411
2022-08-21T03:14:40.606Z,9.745429
2022-08-21T03:15:40.593Z,9.745514
2022-08-21T03:16:40.607Z,9.745554
2022-08-21T03:17:40.572Z,9.745468
2022-08-21T03:18:40.567Z,9.745439
2022-08-21T03:19:40.559Z,9.745568
2022-08-21T03:20:40.551Z,9.745550
2022-08-21T03:21:40.574Z,9.745573
2022-08-21T03:22:40.541Z,9.745537
2022-08-21T03:23:40.535Z,9.745399
2022-08-21T03:24:40.516Z,9.745312
2022-08-21T03:25:41.128Z,9.745557
2022-08-21T03:26:41.487Z,9.745602
2022-08-21T03:27:40.493Z,9.745318
2022-08-21T03:28:40.483Z,9.745467
2022-08-21T03:29:40.482Z,9.745470
2022-08-21T03:30:40.466Z,9.745513
2022-08-21T03:31:40.495Z,9.745426
2022-08-21T03:32:40.454Z,9.745416
2022-08-21T03:33:40.451Z,9.745616
2022-08-21T03:34:40.431Z,9.745306
2022-08-21T03:35:40.436Z,9.745546
2022-08-21T03:36:40.452Z,9.745620
2022-08-21T03:37:40.412Z,9.745541
2022-08-21T03:38:40.412Z,9.745515
2022-08-21T03:39:40.434Z,9.745670
2022-08-21T03:40:40.390Z,9.745557
2022-08-21T03:41:40.412Z,9.745322
2022-08-21T03:42:40.373Z,9.745535
2022-08-21T03:43:40.369Z,9.745494
2022-08-21T03:44:40.368Z,9.745243
2022-08-21T03:45:40.354Z,9.745151
2022-08-21T03:46:40.378Z,9.745127
2022-08-21T03:47:40.342Z,9.745272
2022-08-21T03:48:40.326Z,9.745162
2022-08-21T03:49:40.320Z,9.745224
2022-08-21T03:50:41.243Z,9.745348
2022-08-21T03:51:40.329Z,9.745757
2022-08-21T03:52:40.297Z,9.745423
2022-08-21T03:53:40.292Z,9.745126
2022-08-21T03:54:40.290Z,9.745247
2022-08-21T03:55:40.272Z,9.745345
2022-08-21T03:56:40.293Z,9.745304
2022-08-21T03:57:40.261Z,9.745256
2022-08-21T03:58:40.255Z,9.745295
2022-08-21T03:59:40.243Z,9.745344
2022-08-21T04:00:40.234Z,9.745386
2022-08-21T04:01:40.305Z,9.745461
2022-08-21T04:02:40.226Z,9.745523
2022-08-21T04:03:40.210Z,9.745606
2022-08-21T04:04:40.199Z,9.745537
2022-08-21T04:05:40.210Z,9.745389
2022-08-21T04:06:40.210Z,9.745502
2022-08-21T04:07:40.181Z,9.745290
2022-08-21T04:08:40.175Z,9.745388
2022-08-21T04:09:40.183Z,9.745394
2022-08-21T04:10:40.157Z,9.745398
2022-08-21T04:11:40.173Z,9.745248
2022-08-21T04:12:40.135Z,9.745831
2022-08-21T04:13:44.648Z,9.744858
2022-08-21T04:14:40.117Z,9.745004
2022-08-21T04:15:40.113Z,9.745331
2022-08-21T04:16:40.135Z,9.745603
2022-08-21T04:17:40.094Z,9.745562
2022-08-21T04:18:40.086Z,9.745304
2022-08-21T04:19:40.084Z,9.745275
2022-08-21T04:20:40.068Z,9.745335
2022-08-21T04:21:40.090Z,9.745199
2022-08-21T04:22:40.054Z,9.745142
2022-08-21T04:23:40.045Z,9.745287
2022-08-21T04:24:40.036Z,9.745371
2022-08-21T04:25:40.035Z,9.745214
2022-08-21T04:26:40.051Z,9.745524
2022-08-21T04:27:40.017Z,9.745407
2022-08-21T04:28:40.005Z,9.745259
2022-08-21T04:29:40.300Z,9.745378
2022-08-21T04:30:40.988Z,9.745485
2022-08-21T04:31:39.984Z,9.745500
2022-08-21T04:32:39.999Z,9.745506
2022-08-21T04:33:39.967Z,9.745562
2022-08-21T04:34:39.959Z,9.745573
2022-08-21T04:35:39.945Z,9.745706
2022-08-21T04:36:39.936Z,9.745674
2022-08-21T04:37:41.590Z,9.745696
2022-08-21T04:38:39.924Z,9.745679
2022-08-21T04:39:39.996Z,9.745427
2022-08-21T04:40:39.909Z,9.745541
2022-08-21T04:41:39.902Z,9.745405
2022-08-21T04:42:39.923Z,9.745236
2022-08-21T04:43:39.883Z,9.745707
2022-08-21T04:44:39.879Z,9.745701
2022-08-21T04:45:39.876Z,9.745286
2022-08-21T04:46:39.865Z,9.745830
2022-08-21T04:47:52.330Z,9.745852
2022-08-21T04:48:40.848Z,9.745482
2022-08-21T04:49:39.839Z,9.745767
2022-08-21T04:50:39.848Z,9.745468
2022-08-21T04:51:39.823Z,9.745813
2022-08-21T04:52:39.848Z,9.745723
2022-08-21T04:53:39.814Z,9.745716
2022-08-21T04:54:39.799Z,9.745388
2022-08-21T04:55:39.796Z,9.745713
2022-08-21T04:56:39.787Z,9.745820
2022-08-21T04:57:48.653Z,9.745715
2022-08-21T04:58:40.769Z,9.745482
2022-08-21T04:59:39.761Z,9.745753
2022-08-21T05:00:39.754Z,9.745823
2022-08-21T05:01:39.787Z,9.745634
2022-08-21T05:02:39.767Z,9.745412
2022-08-21T05:03:39.728Z,9.745585
2022-08-21T05:04:39.725Z,9.745736
2022-08-21T05:05:39.720Z,9.745778
2022-08-21T05:06:39.707Z,9.745385
2022-08-21T05:07:42.386Z,9.745583
2022-08-21T05:08:39.696Z,9.745758
2022-08-21T05:09:39.687Z,9.745585
2022-08-21T05:10:39.681Z,9.745479
2022-08-21T05:11:39.665Z,9.745350
2022-08-21T05:12:39.687Z,9.745459
2022-08-21T05:13:39.653Z,9.745605
2022-08-21T05:14:39.643Z,9.745564
2022-08-21T05:15:39.632Z,9.745443
2022-08-21T05:16:39.628Z,9.745334
2022-08-21T05:17:39.639Z,9.745177
2022-08-21T05:18:40.618Z,9.744963
2022-08-21T05:19:39.610Z,9.745116
2022-08-21T05:20:39.601Z,9.745116
2022-08-21T05:21:39.594Z,9.745529
2022-08-21T05:22:39.614Z,9.746003
2022-08-21T05:23:39.573Z,9.746120
2022-08-21T05:24:39.566Z,9.746120
2022-08-21T05:25:39.560Z,9.746120
2022-08-21T05:26:46.269Z,9.746120
2022-08-21T05:27:40.572Z,9.745586
2022-08-21T05:28:39.534Z,9.745591
2022-08-21T05:29:39.524Z,9.745610
2022-08-21T05:30:39.518Z,9.745594
2022-08-21T05:31:39.515Z,9.746197
2022-08-21T05:32:39.535Z,9.745670
2022-08-21T05:33:39.500Z,9.745463
2022-08-21T05:34:39.483Z,9.745382
2022-08-21T05:35:39.478Z,9.745287
2022-08-21T05:36:39.470Z,9.745329
2022-08-21T05:37:39.478Z,9.745446
2022-08-21T05:38:40.460Z,9.745742
2022-08-21T05:40:04.804Z,9.745445
2022-08-21T05:40:40.460Z,9.745589
2022-08-21T05:41:39.427Z,9.745746
2022-08-21T05:42:39.458Z,9.745722
2022-08-21T05:43:39.426Z,9.745709
2022-08-21T05:44:39.407Z,9.745633
2022-08-21T05:45:42.582Z,9.745516
2022-08-21T05:46:39.393Z,9.745543
2022-08-21T05:47:39.406Z,9.745539
2022-08-21T05:48:39.373Z,9.745609
2022-08-21T05:49:39.362Z,9.745455
2022-08-21T05:50:39.357Z,9.745190
2022-08-21T05:51:39.344Z,9.745434
2022-08-21T05:52:39.337Z,9.745531
2022-08-21T05:53:39.353Z,9.745530
2022-08-21T05:54:39.339Z,9.745518
2022-08-21T05:55:44.173Z,9.745452
2022-08-21T05:56:41.304Z,9.745526
2022-08-21T05:57:39.333Z,9.745384
2022-08-21T05:58:39.291Z,9.745268
2022-08-21T05:59:39.285Z,9.745707
2022-08-21T06:00:39.281Z,9.745666
2022-08-21T06:01:39.314Z,9.745624
2022-08-21T06:02:39.258Z,9.745568
2022-08-21T06:03:39.278Z,9.745482
2022-08-21T06:04:39.239Z,9.745262
2022-08-21T06:05:39.233Z,9.745367
2022-08-21T06:06:39.218Z,9.745367
2022-08-21T06:07:39.246Z,9.745304
2022-08-21T06:08:39.220Z,9.745417
2022-08-21T06:09:39.210Z,9.745547
2022-08-21T06:10:39.196Z,9.745403
2022-08-21T06:11:39.188Z,9.744698
2022-08-21T06:12:39.177Z,9.745048
2022-08-21T06:13:39.196Z,9.745251
2022-08-21T06:14:39.164Z,9.745194
2022-08-21T06:15:39.158Z,9.745294
2022-08-21T06:16:39.148Z,9.745541
2022-08-21T06:17:39.141Z,9.745238
2022-08-21T06:18:39.157Z,9.745075
2022-08-21T06:19:39.127Z,9.745188
2022-08-21T06:20:39.118Z,9.745397
2022-08-21T06:21:39.107Z,9.745676
2022-08-21T06:22:39.099Z,9.745399
2022-08-21T06:23:39.123Z,9.745366
2022-08-21T06:24:39.083Z,9.745447
2022-08-21T06:25:39.072Z,9.745361
2022-08-21T06:26:39.066Z,9.745461
2022-08-21T06:27:39.056Z,9.745468
2022-08-21T06:28:39.074Z,9.745172
2022-08-21T06:29:44.364Z,9.745375
2022-08-21T06:30:40.032Z,9.745614
2022-08-21T06:31:39.028Z,9.745515
2022-08-21T06:32:39.022Z,9.745545
2022-08-21T06:33:39.031Z,9.745572
2022-08-21T06:34:38.997Z,9.745413
2022-08-21T06:35:41.403Z,9.745474
2022-08-21T06:36:38.985Z,9.745599
2022-08-21T06:37:38.976Z,9.745611
2022-08-21T06:38:38.994Z,9.745428
2022-08-21T06:39:43.261Z,9.745549
2022-08-21T06:40:44.831Z,9.745507
2022-08-21T06:41:39.944Z,9.745525
2022-08-21T06:42:38.936Z,9.745621
2022-08-21T06:43:39.605Z,9.745592
2022-08-21T06:44:39.921Z,9.745687
2022-08-21T06:45:38.915Z,9.745661
2022-08-21T06:46:38.901Z,9.745605
2022-08-21T06:47:38.904Z,9.745294
2022-08-21T06:48:38.915Z,9.745541
2022-08-21T06:49:38.976Z,9.745571
2022-08-21T06:50:38.880Z,9.745440
2022-08-21T06:51:38.872Z,9.745500
2022-08-21T06:52:38.865Z,9.745568
2022-08-21T06:53:38.877Z,9.745539
2022-08-21T06:54:38.853Z,9.745442
2022-08-21T06:55:38.844Z,9.745435
2022-08-21T06:56:38.837Z,9.745547
2022-08-21T06:57:38.829Z,9.745594
2022-08-21T06:58:38.843Z,9.745509
2022-08-21T06:59:38.820Z,9.745556
2022-08-21T07:00:38.806Z,9.745469
2022-08-21T07:01:38.836Z,9.745537
2022-08-21T07:02:41.521Z,9.745470
2022-08-21T07:03:38.818Z,9.745533
2022-08-21T07:04:38.779Z,9.745544
2022-08-21T07:05:38.766Z,9.745605
2022-08-21T07:06:38.755Z,9.745552
2022-08-21T07:07:38.754Z,9.745549
2022-08-21T07:08:38.766Z,9.745669
2022-08-21T07:09:38.733Z,9.745639
2022-08-21T07:10:38.725Z,9.745452
2022-08-21T07:11:44.211Z,9.745503
2022-08-21T07:12:39.708Z,9.745783
2022-08-21T07:13:38.723Z,9.745605
2022-08-21T07:14:38.693Z,9.745580
2022-08-21T07:15:38.689Z,9.745190
2022-08-21T07:16:38.674Z,9.745399
2022-08-21T07:17:38.671Z,9.745425
2022-08-21T07:18:38.687Z,9.745389
2022-08-21T07:19:38.651Z,9.745469
2022-08-21T07:20:38.641Z,9.745439
2022-08-21T07:21:38.632Z,9.745538
2022-08-21T07:22:38.626Z,9.745504
2022-08-21T07:23:38.644Z,9.745502
2022-08-21T07:24:38.616Z,9.745493
2022-08-21T07:25:38.603Z,9.745396
2022-08-21T07:26:38.596Z,9.745377
2022-08-21T07:27:38.584Z,9.745337
2022-08-21T07:28:38.609Z,9.745261
2022-08-21T07:29:38.573Z,9.745318
2022-08-21T07:30:38.571Z,9.745221
2022-08-21T07:31:38.556Z,9.745217
2022-08-21T07:32:38.555Z,9.745289
2022-08-21T07:33:38.567Z,9.745323
2022-08-21T07:34:38.537Z,9.745426
2022-08-21T07:35:38.534Z,9.745748
2022-08-21T07:36:38.522Z,9.745645
2022-08-21T07:37:38.525Z,9.745648
2022-08-21T07:38:38.527Z,9.745379
2022-08-21T07:39:38.510Z,9.745442
2022-08-21T07:40:38.486Z,9.745596
2022-08-21T07:41:38.481Z,9.745692
2022-08-21T07:42:38.493Z,9.745567
2022-08-21T07:43:38.492Z,9.745656
2022-08-21T07:44:39.467Z,9.745607
2022-08-21T07:45:38.450Z,9.745477
2022-08-21T07:46:38.437Z,9.745577
2022-08-21T07:47:41.671Z,9.745542
2022-08-21T07:48:38.539Z,9.745436
2022-08-21T07:49:38.442Z,9.745714
2022-08-21T07:50:38.409Z,9.745780
2022-08-21T07:51:38.403Z,9.745693
2022-08-21T07:52:38.394Z,9.745743
2022-08-21T07:53:38.425Z,9.745555
2022-08-21T07:54:38.383Z,9.745730
2022-08-21T07:55:38.371Z,9.745753
2022-08-21T07:56:38.364Z,9.745682
2022-08-21T07:57:38.345Z,9.745614
2022-08-21T07:58:38.363Z,9.745642
2022-08-21T07:59:38.342Z,9.745627
2022-08-21T08:00:38.335Z,9.745568
2022-08-21T08:01:38.369Z,9.745671
2022-08-21T08:02:38.313Z,9.745743
2022-08-21T08:03:38.329Z,9.745582
2022-08-21T08:04:38.318Z,9.745418
2022-08-21T08:05:39.292Z,9.745809
2022-08-21T08:06:38.288Z,9.745944
2022-08-21T08:07:38.275Z,9.745848
2022-08-21T08:08:38.302Z,9.745994
2022-08-21T08:09:38.263Z,9.745935
2022-08-21T08:10:38.257Z,9.745624
2022-08-21T08:11:38.249Z,9.745761
2022-08-21T08:12:38.244Z,9.745663
2022-08-21T08:13:38.266Z,9.745746
2022-08-21T08:14:38.228Z,9.745617
2022-08-21T08:15:38.220Z,9.745464
2022-08-21T08:16:38.217Z,9.745502
2022-08-21T08:17:38.206Z,9.745500
2022-08-21T08:18:38.226Z,9.745738
2022-08-21T08:19:38.191Z,9.745807
2022-08-21T08:20:38.189Z,9.745592
2022-08-21T08:21:38.178Z,9.745648
2022-08-21T08:22:38.174Z,9.745679
2022-08-21T08:23:38.193Z,9.745594
2022-08-21T08:24:38.155Z,9.745772
2022-08-21T08:25:38.145Z,9.745631
2022-08-21T08:26:38.142Z,9.745787
2022-08-21T08:27:38.131Z,9.745713
2022-08-21T08:28:38.152Z,9.745657
2022-08-21T08:29:38.123Z,9.745580
2022-08-21T08:30:38.118Z,9.745535
2022-08-21T08:31:38.111Z,9.745555
2022-08-21T08:32:38.107Z,9.745597
2022-08-21T08:33:38.129Z,9.745591
2022-08-21T08:34:38.096Z,9.745645
2022-08-21T08:35:39.076Z,9.745647
2022-08-21T08:36:38.091Z,9.745532
2022-08-21T08:37:38.071Z,9.745519
2022-08-21T08:38:38.093Z,9.745645
2022-08-21T08:39:38.155Z,9.745634
2022-08-21T08:40:38.745Z,9.745646
2022-08-21T08:41:38.050Z,9.745728
2022-08-21T08:42:38.040Z,9.745455
2022-08-21T08:43:38.070Z,9.745627
2022-08-21T08:44:38.035Z,9.745611
2022-08-21T08:45:38.022Z,9.745638
2022-08-21T08:46:38.014Z,9.745610
2022-08-21T08:47:38.007Z,9.745618
2022-08-21T08:48:38.034Z,9.745637
2022-08-21T08:49:37.999Z,9.745482
2022-08-21T08:50:37.994Z,9.745444
2022-08-21T08:51:37.984Z,9.745498
2022-08-21T08:52:37.978Z,9.745494
2022-08-21T08:53:37.996Z,9.745430
2022-08-21T08:54:37.962Z,9.745507
2022-08-21T08:55:37.963Z,9.745708
2022-08-21T08:56:37.956Z,9.745637
2022-08-21T08:57:37.941Z,9.745621
2022-08-21T08:58:37.964Z,9.745584
2022-08-21T08:59:37.931Z,9.745510
2022-08-21T09:00:37.929Z,9.745483
2022-08-21T09:01:39.143Z,9.745552
2022-08-21T09:02:38.914Z,9.745782
2022-08-21T09:03:37.932Z,9.745900
2022-08-21T09:04:37.896Z,9.745741
2022-08-21T09:05:37.891Z,9.745596
2022-08-21T09:06:37.885Z,9.745544
2022-08-21T09:07:37.876Z,9.745624
2022-08-21T09:08:37.900Z,9.745801
2022-08-21T09:09:37.869Z,9.745620
2022-08-21T09:10:37.863Z,9.745496
2022-08-21T09:11:37.849Z,9.745394
2022-08-21T09:12:37.847Z,9.745438
2022-08-21T09:13:38.718Z,9.745534
2022-08-21T09:14:38.859Z,9.745533
2022-08-21T09:15:37.831Z,9.745448
2022-08-21T09:16:37.825Z,9.745577
2022-08-21T09:17:37.814Z,9.745605
2022-08-21T09:18:37.807Z,9.745559
2022-08-21T09:19:37.824Z,9.745534
2022-08-21T09:20:37.791Z,9.745623
2022-08-21T09:21:37.789Z,9.745709
2022-08-21T09:22:37.783Z,9.745659
2022-08-21T09:23:37.773Z,9.745655
2022-08-21T09:24:37.799Z,9.745705
2022-08-21T09:25:37.768Z,9.745710
2022-08-21T09:26:37.755Z,9.745609
2022-08-21T09:27:37.748Z,9.745593
2022-08-21T09:28:37.738Z,9.745553
2022-08-21T09:29:37.760Z,9.745571
2022-08-21T09:30:37.730Z,9.745595
2022-08-21T09:31:37.724Z,9.745490
2022-08-21T09:32:38.264Z,9.745627
2022-08-21T09:33:37.709Z,9.745594
2022-08-21T09:34:37.728Z,9.745298
2022-08-21T09:35:37.690Z,9.745433
2022-08-21T09:36:37.697Z,9.745565
2022-08-21T09:37:37.680Z,9.745624
2022-08-21T09:38:37.677Z,9.745461
2022-08-21T09:39:40.257Z,9.745540
2022-08-21T09:40:37.681Z,9.745396
2022-08-21T09:41:37.655Z,9.744918
2022-08-21T09:42:37.644Z,9.745330
2022-08-21T09:43:37.639Z,9.745579
2022-08-21T09:44:37.657Z,9.745393
2022-08-21T09:45:38.621Z,9.745419
2022-08-21T09:46:37.613Z,9.745345
2022-08-21T09:47:37.615Z,9.745395
2022-08-21T09:48:37.605Z,9.745460
2022-08-21T09:49:37.626Z,9.745579
2022-08-21T09:50:37.592Z,9.745594
2022-08-21T09:51:37.579Z,9.745496
2022-08-21T09:52:37.578Z,9.745287
2022-08-21T09:53:37.569Z,9.745322
2022-08-21T09:54:37.590Z,9.745432
2022-08-21T09:55:37.551Z,9.745669
2022-08-21T09:56:37.548Z,9.745496
2022-08-21T09:57:37.539Z,9.745396
2022-08-21T09:58:37.564Z,9.745761
2022-08-21T09:59:37.522Z,9.745408
2022-08-21T10:00:37.546Z,9.745522
2022-08-21T10:01:37.512Z,9.745489
2022-08-21T10:02:37.507Z,9.745518
2022-08-21T10:03:37.529Z,9.745502
2022-08-21T10:04:37.491Z,9.745513
2022-08-21T10:05:37.486Z,9.745782
2022-08-21T10:06:37.477Z,9.745789
2022-08-21T10:07:37.473Z,9.745757
2022-08-21T10:08:37.458Z,9.745849
2022-08-21T10:09:37.481Z,9.745888
2022-08-21T10:10:37.444Z,9.745914
2022-08-21T10:11:37.441Z,9.746055
2022-08-21T10:12:37.433Z,9.745723
2022-08-21T10:13:37.425Z,9.745900
2022-08-21T10:14:37.440Z,9.745706
2022-08-21T10:15:37.404Z,9.745622
2022-08-21T10:16:37.398Z,9.745686
2022-08-21T10:17:37.403Z,9.745379
2022-08-21T10:18:37.384Z,9.745520
2022-08-21T10:19:37.399Z,9.745497
2022-08-21T10:20:37.363Z,9.745555
2022-08-21T10:21:37.358Z,9.745841
2022-08-21T10:22:37.352Z,9.745610
2022-08-21T10:23:37.383Z,9.745774
2022-08-21T10:24:37.335Z,9.745943
2022-08-21T10:25:37.331Z,9.746141
2022-08-21T10:26:37.327Z,9.745962
2022-08-21T10:27:37.320Z,9.745582
2022-08-21T10:28:37.335Z,9.745189
2022-08-21T10:29:37.297Z,9.745264
2022-08-21T10:30:37.295Z,9.745272
2022-08-21T10:31:37.286Z,9.745516
2022-08-21T10:32:37.279Z,9.745453
2022-08-21T10:33:37.298Z,9.745641
2022-08-21T10:34:37.260Z,9.745527
2022-08-21T10:35:37.251Z,9.745454
2022-08-21T10:36:37.247Z,9.745378
2022-08-21T10:37:37.241Z,9.745513
2022-08-21T10:38:52.574Z,9.745435
2022-08-21T10:39:39.283Z,9.745360
2022-08-21T10:40:37.220Z,9.745285
2022-08-21T10:41:37.213Z,9.745647
2022-08-21T10:42:37.204Z,9.745490
2022-08-21T10:43:37.199Z,9.745250
2022-08-21T10:44:37.211Z,9.745279
2022-08-21T10:45:37.182Z,9.745382
2022-08-21T10:46:37.180Z,9.745595
2022-08-21T10:47:37.165Z,9.745696
2022-08-21T10:48:37.162Z,9.745734
2022-08-21T10:49:37.173Z,9.745717
2022-08-21T10:50:37.145Z,9.745601
2022-08-21T10:51:37.136Z,9.745470
2022-08-21T10:52:37.126Z,9.745366
2022-08-21T10:53:37.128Z,9.745426
2022-08-21T10:54:37.138Z,9.745511
2022-08-21T10:55:37.106Z,9.745359
2022-08-21T10:56:37.099Z,9.745428
2022-08-21T10:57:37.090Z,9.745512
2022-08-21T10:58:37.085Z,9.745531
2022-08-21T10:59:38.862Z,9.745401
2022-08-21T11:00:38.143Z,9.745317
2022-08-21T11:01:37.071Z,9.745233
2022-08-21T11:02:37.049Z,9.745306
2022-08-21T11:03:37.048Z,9.745338
2022-08-21T11:04:49.284Z,9.745414
2022-08-21T11:05:38.074Z,9.745500
2022-08-21T11:06:37.023Z,9.745554
2022-08-21T11:07:37.017Z,9.745429
2022-08-21T11:08:37.009Z,9.745481
2022-08-21T11:09:37.029Z,9.745540
2022-08-21T11:10:36.997Z,9.745515
2022-08-21T11:11:36.991Z,9.745341
2022-08-21T11:12:36.981Z,9.745882
2022-08-21T11:13:36.969Z,9.745861
2022-08-21T11:14:36.984Z,9.746110
2022-08-21T11:15:36.954Z,9.745838
2022-08-21T11:16:36.942Z,9.745609
2022-08-21T11:17:36.935Z,9.745485
2022-08-21T11:18:36.927Z,9.745614
2022-08-21T11:19:36.948Z,9.745454
2022-08-21T11:20:36.912Z,9.745567
2022-08-21T11:21:36.910Z,9.745591
2022-08-21T11:22:36.898Z,9.745606
2022-08-21T11:23:36.891Z,9.745332
2022-08-21T11:24:36.912Z,9.745368
2022-08-21T11:25:37.224Z,9.745492
2022-08-21T11:26:36.857Z,9.745658
2022-08-21T11:27:37.862Z,9.745662
2022-08-21T11:28:36.855Z,9.745672
2022-08-21T11:29:36.875Z,9.745596
2022-08-21T11:30:36.843Z,9.745469
2022-08-21T11:31:36.828Z,9.745267
2022-08-21T11:32:37.829Z,9.745378
2022-08-21T11:33:36.814Z,9.745489
2022-08-21T11:34:37.846Z,9.745638
2022-08-21T11:35:37.846Z,9.745448
2022-08-21T11:36:36.801Z,9.745567
2022-08-21T11:37:36.792Z,9.745481
2022-08-21T11:38:36.787Z,9.745715
2022-08-21T11:39:36.817Z,9.745487
2022-08-21T11:40:36.771Z,9.745575
2022-08-21T11:41:36.767Z,9.745439
2022-08-21T11:42:36.755Z,9.745339
2022-08-21T11:43:36.749Z,9.745203
2022-08-21T11:44:36.797Z,9.745036